Time;durP1;ratioP1;P1;durP2;ratioP2;P2;SDS_P1;SDS_P2;PMS_P1;PMS_P2;Temp;Humidity;BMP_temperature;BMP_pressure;BME280_temperature;BME280_humidity;BME280_pressure;Samples;Min_cycle;Max_cycle;Signal;HPM_P1;HPM_P2
2022/07/08 00:02:02;;;;;;;6.13;1.50;;;15.30;99.90;;;;;;4994207;28;20030;-55
2022/07/08 00:04:27;;;;;;;7.07;1.27;;;15.10;99.90;;;;;;4992608;28;20023;-54
2022/07/08 00:06:53;;;;;;;9.27;1.52;;;15.10;99.90;;;;;;4993614;28;20025;-55
2022/07/08 00:09:19;;;;;;;8.60;1.80;;;15.00;99.90;;;;;;4993368;28;20031;-51
2022/07/08 00:11:45;;;;;;;6.28;1.60;;;14.90;99.90;;;;;;4994053;28;20077;-55
2022/07/08 00:14:11;;;;;;;7.10;1.40;;;14.80;99.90;;;;;;4993130;28;20033;-54
2022/07/08 00:16:45;;;;;;;3.92;1.40;;;14.80;99.90;;;;;;4993918;28;20101;-54
2022/07/08 00:19:14;;;;;;;4.45;1.83;;;14.70;99.90;;;;;;4992751;28;20058;-54
2022/07/08 00:21:43;;;;;;;6.07;1.23;;;14.70;99.90;;;;;;4992984;28;20027;-51
2022/07/08 00:24:13;;;;;;;2.97;1.20;;;14.70;99.90;;;;;;4992913;28;20117;-54
2022/07/08 00:26:39;;;;;;;4.85;1.50;;;14.70;99.90;;;;;;4993884;28;20033;-55
2022/07/08 00:29:05;;;;;;;6.55;1.38;;;14.70;99.90;;;;;;4993955;28;20049;-53
2022/07/08 00:31:31;;;;;;;8.35;1.58;;;14.70;99.90;;;;;;4992560;28;20030;-51
2022/07/08 00:33:57;;;;;;;8.25;1.23;;;14.60;99.90;;;;;;4992856;28;20031;-54
2022/07/08 00:36:23;;;;;;;2.72;0.93;;;14.70;99.90;;;;;;4996515;28;20037;-51
2022/07/08 00:38:48;;;;;;;4.65;1.40;;;14.70;99.90;;;;;;4996488;28;20124;-55
2022/07/08 00:41:15;;;;;;;8.18;1.60;;;14.80;99.90;;;;;;4996243;28;20113;-54
2022/07/08 00:43:43;;;;;;;5.28;1.08;;;14.80;99.90;;;;;;4997542;28;20474;-55
2022/07/08 00:46:10;;;;;;;3.35;1.33;;;14.90;99.90;;;;;;4995849;28;20034;-52
2022/07/08 00:48:36;;;;;;;4.63;1.10;;;15.00;99.90;;;;;;4997451;28;20161;-49
2022/07/08 00:51:06;;;;;;;2.47;1.30;;;14.90;99.90;;;;;;4996964;28;20030;-51
2022/07/08 00:53:33;;;;;;;10.23;1.50;;;14.90;99.90;;;;;;4996447;28;20034;-55
2022/07/08 00:56:00;;;;;;;10.52;1.25;;;14.90;99.90;;;;;;4996470;28;20033;-56
2022/07/08 00:58:26;;;;;;;5.90;1.55;;;14.80;99.90;;;;;;4996099;28;20031;-54
2022/07/08 01:00:53;;;;;;;8.77;1.75;;;14.60;99.90;;;;;;4997058;28;20058;-53
2022/07/08 01:03:19;;;;;;;5.63;1.38;;;14.50;99.90;;;;;;4995907;28;20030;-51
2022/07/08 01:05:44;;;;;;;1.67;0.95;;;14.50;99.90;;;;;;4996030;28;20030;-53
2022/07/08 01:08:10;;;;;;;2.22;1.17;;;14.40;99.90;;;;;;4997088;28;20029;-52
2022/07/08 01:10:37;;;;;;;9.57;1.83;;;14.40;99.90;;;;;;4997297;28;20022;-56
2022/07/08 01:13:03;;;;;;;4.15;1.25;;;14.30;99.90;;;;;;4996198;28;20482;-52
2022/07/08 01:15:29;;;;;;;5.38;1.70;;;14.20;99.90;;;;;;4996909;28;20061;-55
2022/07/08 01:17:54;;;;;;;9.15;1.30;;;14.20;99.90;;;;;;4996353;28;20030;-53
2022/07/08 01:20:20;;;;;;;5.68;1.20;;;14.30;99.90;;;;;;4997096;28;20030;-55
2022/07/08 01:22:45;;;;;;;6.63;1.45;;;14.40;99.90;;;;;;4996828;28;20023;-54
2022/07/08 01:25:12;;;;;;;5.43;1.50;;;14.40;99.90;;;;;;4997800;28;20140;-54
2022/07/08 01:27:38;;;;;;;4.15;1.45;;;14.40;99.90;;;;;;4996872;28;20022;-54
2022/07/08 01:30:06;;;;;;;4.80;1.20;;;14.40;99.90;;;;;;4995901;28;20477;-54
2022/07/08 01:32:41;;;;;;;3.17;1.10;;;14.30;99.90;;;;;;4995366;28;20031;-53
2022/07/08 01:35:07;;;;;;;8.05;1.35;;;14.10;99.90;;;;;;4996706;28;20027;-53
2022/07/08 01:37:33;;;;;;;4.57;1.45;;;14.10;99.90;;;;;;4995383;28;20104;-54
2022/07/08 01:39:59;;;;;;;9.63;1.45;;;14.10;99.90;;;;;;4995354;28;20026;-55
2022/07/08 01:42:24;;;;;;;5.70;1.40;;;14.20;99.90;;;;;;4995230;28;20049;-55
2022/07/08 01:44:50;;;;;;;2.47;1.10;;;14.20;99.90;;;;;;4994831;28;20050;-56
2022/07/08 01:47:16;;;;;;;4.10;1.38;;;14.30;99.90;;;;;;4995265;28;20488;-55
2022/07/08 01:49:41;;;;;;;5.03;1.65;;;14.30;99.90;;;;;;4996751;28;20385;-54
2022/07/08 01:52:08;;;;;;;7.15;1.67;;;14.30;99.90;;;;;;4995110;28;20027;-54
2022/07/08 01:54:34;;;;;;;3.35;1.60;;;14.30;99.90;;;;;;4996297;28;20026;-54
2022/07/08 01:57:15;;;;;;;5.30;1.55;;;14.30;99.90;;;;;;4995380;28;20026;-56
2022/07/08 01:59:45;;;;;;;7.68;1.17;;;14.20;99.90;;;;;;4995751;28;20026;-53
2022/07/08 02:02:12;;;;;;;4.50;1.58;;;14.20;99.90;;;;;;4994693;28;20046;-55
2022/07/08 02:04:38;;;;;;;13.70;2.38;;;14.20;99.90;;;;;;4996103;28;20029;-54
2022/07/08 02:07:04;;;;;;;10.82;1.80;;;14.20;99.90;;;;;;4995742;28;20022;-56
2022/07/08 02:09:30;;;;;;;6.25;1.95;;;14.10;99.90;;;;;;4994849;28;20022;-51
2022/07/08 02:14:41;;;;;;;4.60;1.27;;;14.20;99.90;;;;;;4996596;28;20065;-50
2022/07/08 02:17:07;;;;;;;3.05;1.23;;;14.40;99.90;;;;;;4994689;28;20054;-52
2022/07/08 02:19:33;;;;;;;5.88;1.55;;;14.50;99.90;;;;;;4995731;28;20034;-53
2022/07/08 02:21:59;;;;;;;6.47;1.40;;;14.60;99.90;;;;;;4995639;28;20022;-50
2022/07/08 02:24:25;;;;;;;8.15;1.45;;;14.70;99.90;;;;;;4994783;28;20432;-51
2022/07/08 02:26:50;;;;;;;9.25;1.45;;;14.70;99.90;;;;;;4994551;28;20018;-52
2022/07/08 02:29:16;;;;;;;5.68;0.93;;;14.80;99.90;;;;;;4994342;28;20022;-53
2022/07/08 02:31:42;;;;;;;4.20;0.93;;;14.70;99.90;;;;;;4994354;28;20077;-51
2022/07/08 02:34:07;;;;;;;2.13;1.05;;;14.80;99.90;;;;;;4994653;28;20030;-51
2022/07/08 02:36:33;;;;;;;9.45;1.80;;;14.80;99.90;;;;;;4978567;28;20037;-55
2022/07/08 02:38:59;;;;;;;2.83;1.52;;;14.90;99.90;;;;;;4975765;28;20085;-51
2022/07/08 02:41:24;;;;;;;4.28;1.20;;;14.90;99.90;;;;;;4974769;28;20041;-53
2022/07/08 02:43:50;;;;;;;5.22;1.30;;;14.90;99.90;;;;;;4975788;28;20030;-54
2022/07/08 02:46:15;;;;;;;7.55;1.83;;;14.90;99.90;;;;;;4974893;28;20086;-56
2022/07/08 02:48:41;;;;;;;7.28;1.52;;;14.70;99.90;;;;;;4974413;28;20027;-55
2022/07/08 02:51:07;;;;;;;3.25;1.20;;;14.50;99.90;;;;;;4974717;28;20027;-54
2022/07/08 02:53:32;;;;;;;8.35;2.25;;;14.50;99.90;;;;;;4974137;28;20482;-49
2022/07/08 02:55:58;;;;;;;5.68;1.80;;;14.70;99.90;;;;;;4974498;28;20073;-55
2022/07/08 02:58:24;;;;;;;4.28;1.48;;;14.80;99.90;;;;;;4973899;28;20027;-51
2022/07/08 03:00:49;;;;;;;5.90;1.70;;;14.80;99.90;;;;;;4974186;28;20058;-49
2022/07/08 03:03:15;;;;;;;6.80;1.85;;;14.80;99.90;;;;;;4975934;28;20030;-52
2022/07/08 03:05:41;;;;;;;3.60;1.40;;;14.90;99.90;;;;;;4974406;28;20061;-54
2022/07/08 03:08:06;;;;;;;4.88;1.40;;;15.00;99.90;;;;;;4976060;28;20061;-55
2022/07/08 03:10:32;;;;;;;10.98;1.95;;;15.00;99.90;;;;;;4975620;28;20019;-48
2022/07/08 03:12:58;;;;;;;10.15;3.13;;;15.00;99.90;;;;;;4974221;28;20034;-51
2022/07/08 03:15:25;;;;;;;5.45;1.52;;;15.00;99.90;;;;;;4974253;28;20023;-55
2022/07/08 03:17:51;;;;;;;6.25;1.10;;;15.10;99.90;;;;;;4974054;28;20033;-55
2022/07/08 03:20:17;;;;;;;4.10;1.50;;;15.10;99.90;;;;;;4975184;28;20102;-52
2022/07/08 03:22:43;;;;;;;4.57;1.10;;;15.10;99.90;;;;;;4974341;28;20029;-56
2022/07/08 03:25:09;;;;;;;4.72;1.75;;;15.20;99.90;;;;;;4974859;28;20023;-56
2022/07/08 03:27:34;;;;;;;7.80;1.52;;;15.30;99.90;;;;;;4973945;28;20030;-54
2022/07/08 03:30:00;;;;;;;11.80;2.20;;;15.40;99.90;;;;;;4973968;28;20027;-55
2022/07/08 03:32:26;;;;;;;10.77;4.50;;;15.40;99.90;;;;;;4973794;28;20023;-54
2022/07/08 03:35:15;;;;;;;4.60;1.58;;;15.40;99.90;;;;;;4974081;28;20049;-53
2022/07/08 03:37:44;;;;;;;6.35;1.38;;;15.40;99.90;;;;;;4975785;28;20038;-56
2022/07/08 03:42:55;;;;;;;6.10;1.33;;;15.30;99.90;;;;;;4975611;28;20030;-56
2022/07/08 03:45:21;;;;;;;6.80;1.30;;;15.30;99.90;;;;;;4974635;28;20019;-54
2022/07/08 03:47:47;;;;;;;12.38;1.50;;;15.30;99.90;;;;;;4974864;28;20022;-53
2022/07/08 03:50:13;;;;;;;5.57;1.63;;;15.20;99.90;;;;;;4974858;28;20489;-54
2022/07/08 03:52:39;;;;;;;5.88;1.27;;;15.30;99.90;;;;;;4973513;28;20437;-55
2022/07/08 03:55:05;;;;;;;5.95;2.10;;;15.30;99.90;;;;;;4975161;28;20082;-55
2022/07/08 03:57:31;;;;;;;5.07;2.75;;;15.40;99.90;;;;;;4974703;28;20031;-50
2022/07/08 03:59:56;;;;;;;6.45;1.75;;;15.40;99.90;;;;;;4973800;28;20461;-55
2022/07/08 04:02:22;;;;;;;4.35;0.98;;;15.50;99.90;;;;;;4973717;28;20026;-51
2022/07/08 04:04:48;;;;;;;5.80;1.20;;;15.60;99.90;;;;;;4974669;28;20019;-53
2022/07/08 04:07:14;;;;;;;5.18;2.08;;;15.70;99.90;;;;;;4973699;28;20033;-52
2022/07/08 04:09:39;;;;;;;8.52;1.65;;;15.80;99.90;;;;;;4973214;28;20049;-54
2022/07/08 04:12:06;;;;;;;6.93;1.10;;;15.70;99.90;;;;;;4973408;28;20095;-54
2022/07/08 04:14:31;;;;;;;4.93;1.35;;;15.80;99.90;;;;;;4973445;28;20053;-54
2022/07/08 04:16:57;;;;;;;5.65;1.30;;;15.80;99.90;;;;;;4973401;28;20019;-56
2022/07/08 04:19:23;;;;;;;3.50;1.17;;;15.80;99.90;;;;;;4974921;28;20375;-54
2022/07/08 04:21:49;;;;;;;2.22;1.13;;;15.90;99.90;;;;;;4973526;28;20481;-53
2022/07/08 04:24:15;;;;;;;5.30;1.10;;;15.90;99.90;;;;;;4973274;28;20019;-49
2022/07/08 04:26:40;;;;;;;3.85;1.05;;;16.00;99.90;;;;;;4973771;28;20018;-55
2022/07/08 04:29:06;;;;;;;5.47;1.33;;;16.10;99.90;;;;;;4973588;28;20030;-54
2022/07/08 04:31:31;;;;;;;7.18;1.13;;;16.10;99.90;;;;;;4973123;28;20030;-54
2022/07/08 04:33:57;;;;;;;3.15;0.95;;;16.10;99.90;;;;;;4973636;28;20054;-50
2022/07/08 04:36:23;;;;;;;5.68;0.85;;;16.10;99.90;;;;;;4974467;28;20496;-54
2022/07/08 04:38:49;;;;;;;4.95;1.23;;;16.20;99.90;;;;;;4973087;28;20031;-50
2022/07/08 04:41:15;;;;;;;6.10;0.95;;;16.20;99.90;;;;;;4974437;28;20038;-51
2022/07/08 04:43:41;;;;;;;2.97;1.05;;;16.30;99.90;;;;;;4973073;28;20528;-49
2022/07/08 04:46:06;;;;;;;3.88;1.15;;;16.30;99.90;;;;;;4973125;28;20058;-52
2022/07/08 04:48:32;;;;;;;6.03;1.38;;;16.30;99.90;;;;;;4974217;28;20063;-49
2022/07/08 04:50:58;;;;;;;7.72;1.50;;;16.30;99.90;;;;;;4974206;28;20033;-51
2022/07/08 04:53:23;;;;;;;3.03;0.80;;;16.30;99.90;;;;;;4974215;28;20027;-54
2022/07/08 04:55:49;;;;;;;5.57;1.08;;;16.30;99.90;;;;;;4974195;28;20034;-49
2022/07/08 04:58:15;;;;;;;5.72;2.15;;;16.40;99.90;;;;;;4974221;28;20029;-55
2022/07/08 05:00:40;;;;;;;7.35;1.45;;;16.50;99.90;;;;;;4973132;28;20064;-56
2022/07/08 05:03:06;;;;;;;4.93;1.30;;;16.60;99.90;;;;;;4973125;28;20058;-55
2022/07/08 05:05:33;;;;;;;7.57;1.80;;;16.70;99.90;;;;;;4973168;28;20030;-55
2022/07/08 05:07:59;;;;;;;3.95;1.15;;;16.80;99.90;;;;;;4972981;28;20053;-52
2022/07/08 05:10:27;;;;;;;6.90;1.17;;;16.90;99.90;;;;;;4972910;28;20027;-53
2022/07/08 05:12:53;;;;;;;4.55;1.17;;;17.00;99.90;;;;;;4973924;28;20023;-56
2022/07/08 05:15:20;;;;;;;4.55;1.13;;;17.10;99.90;;;;;;4972897;28;20023;-54
2022/07/08 05:17:47;;;;;;;5.85;1.13;;;17.20;99.90;;;;;;4973641;28;20138;-55
2022/07/08 05:20:13;;;;;;;3.42;0.82;;;17.30;99.90;;;;;;4973398;28;20099;-54
2022/07/08 05:22:39;;;;;;;6.78;1.25;;;17.50;99.90;;;;;;4977125;28;20039;-56
2022/07/08 05:25:06;;;;;;;3.72;0.90;;;17.70;99.90;;;;;;4977454;28;20019;-55
2022/07/08 05:27:32;;;;;;;5.15;1.42;;;18.00;99.90;;;;;;4976384;28;20030;-50
2022/07/08 05:29:58;;;;;;;5.60;0.90;;;18.30;99.90;;;;;;4977699;28;20050;-51
2022/07/08 05:32:24;;;;;;;5.53;1.55;;;18.40;99.90;;;;;;4975706;28;20037;-56
2022/07/08 05:34:49;;;;;;;6.45;1.83;;;18.40;99.90;;;;;;4977581;28;20027;-56
2022/07/08 05:37:15;;;;;;;7.85;1.42;;;18.40;99.90;;;;;;4977859;28;20026;-54
2022/07/08 05:39:42;;;;;;;10.70;1.25;;;18.40;99.90;;;;;;4976813;28;20030;-52
2022/07/08 05:42:09;;;;;;;4.00;0.85;;;18.30;99.90;;;;;;4975824;28;20027;-54
2022/07/08 05:44:36;;;;;;;4.55;1.10;;;18.40;99.90;;;;;;4977669;28;20027;-56
2022/07/08 05:47:06;;;;;;;4.75;1.50;;;18.40;99.90;;;;;;4976207;28;20019;-54
2022/07/08 05:49:32;;;;;;;7.47;1.10;;;18.40;99.90;;;;;;4977251;28;20039;-56
2022/07/08 05:51:58;;;;;;;6.45;1.40;;;18.50;99.90;;;;;;4975777;28;20073;-51
2022/07/08 05:54:23;;;;;;;9.25;2.05;;;18.60;99.90;;;;;;4975639;28;20035;-56
2022/07/08 05:56:49;;;;;;;6.75;1.48;;;18.60;99.90;;;;;;4975676;28;20169;-54
2022/07/08 05:59:14;;;;;;;7.50;1.48;;;18.70;99.90;;;;;;4977232;28;20030;-49
2022/07/08 06:01:40;;;;;;;5.82;1.13;;;18.80;99.90;;;;;;4975261;28;20034;-51
2022/07/08 06:04:07;;;;;;;5.57;1.13;;;18.80;99.90;;;;;;4976024;28;20105;-47
2022/07/08 06:06:32;;;;;;;4.82;1.00;;;18.90;99.90;;;;;;4976805;28;20023;-49
2022/07/08 06:08:58;;;;;;;4.80;1.08;;;19.00;99.90;;;;;;4975616;28;20019;-50
2022/07/08 06:11:24;;;;;;;6.65;1.20;;;19.10;99.90;;;;;;4975448;28;20031;-49
2022/07/08 06:13:50;;;;;;;2.13;0.77;;;19.20;99.90;;;;;;4975390;28;20035;-51
2022/07/08 06:16:15;;;;;;;3.85;0.80;;;19.20;99.90;;;;;;4992068;28;20038;-49
2022/07/08 06:18:41;;;;;;;6.15;1.30;;;19.20;99.90;;;;;;4994652;28;20117;-47
2022/07/08 06:21:07;;;;;;;2.92;1.05;;;19.20;99.90;;;;;;4994452;28;20033;-47
2022/07/08 06:23:34;;;;;;;5.30;1.10;;;19.20;99.90;;;;;;4995119;28;20019;-47
2022/07/08 06:26:00;;;;;;;3.75;0.95;;;19.20;99.90;;;;;;4995856;28;20018;-47
2022/07/08 06:28:26;;;;;;;6.55;1.50;;;19.30;99.90;;;;;;4994504;28;20022;-50
2022/07/08 06:30:51;;;;;;;7.32;1.20;;;19.30;99.90;;;;;;4994335;28;20030;-48
2022/07/08 06:33:17;;;;;;;5.40;1.20;;;19.40;99.90;;;;;;4994437;28;20048;-48
2022/07/08 06:35:43;;;;;;;10.07;0.90;;;19.50;99.90;;;;;;4994372;28;20038;-49
2022/07/08 06:38:08;;;;;;;8.25;1.50;;;19.50;99.90;;;;;;4994391;28;20033;-49
2022/07/08 06:40:34;;;;;;;5.63;1.25;;;19.50;99.90;;;;;;4994926;28;20080;-47
2022/07/08 06:43:00;;;;;;;6.40;1.50;;;19.50;99.90;;;;;;4995993;28;20027;-47
2022/07/08 06:45:26;;;;;;;5.45;1.05;;;19.50;99.90;;;;;;4994195;28;20030;-49
2022/07/08 06:47:51;;;;;;;7.35;1.33;;;19.50;99.90;;;;;;4995347;28;20031;-47
2022/07/08 06:50:17;;;;;;;6.80;1.42;;;19.60;99.90;;;;;;4994142;28;20058;-50
2022/07/08 06:52:42;;;;;;;5.72;1.33;;;19.70;99.90;;;;;;4994380;28;20034;-47
2022/07/08 06:55:08;;;;;;;6.38;1.42;;;20.00;99.90;;;;;;4994075;28;20038;-50
2022/07/08 06:57:34;;;;;;;5.55;1.25;;;20.10;99.90;;;;;;4993873;28;20026;-48
2022/07/08 07:00:00;;;;;;;6.10;1.05;;;20.10;99.90;;;;;;4995629;28;20089;-49
2022/07/08 07:02:26;;;;;;;5.95;1.00;;;20.00;99.90;;;;;;4993581;28;20038;-47
2022/07/08 07:04:52;;;;;;;5.95;1.08;;;20.10;99.90;;;;;;4995000;28;20053;-48
2022/07/08 07:07:17;;;;;;;1.92;0.80;;;20.20;99.90;;;;;;4995237;28;20140;-47
2022/07/08 07:09:43;;;;;;;4.47;1.20;;;20.30;99.90;;;;;;4993765;28;20022;-47
2022/07/08 07:12:09;;;;;;;7.38;1.60;;;20.30;99.90;;;;;;4993514;28;20081;-47
2022/07/08 07:14:35;;;;;;;4.00;0.90;;;20.30;99.90;;;;;;4994957;28;20026;-47
2022/07/08 07:17:01;;;;;;;6.18;0.98;;;20.30;99.90;;;;;;4994841;28;20097;-53
2022/07/08 07:19:28;;;;;;;3.03;0.90;;;20.30;99.90;;;;;;4993956;28;20108;-50
2022/07/08 07:21:54;;;;;;;7.57;1.10;;;20.40;99.90;;;;;;4993700;28;20029;-47
2022/07/08 07:24:20;;;;;;;3.63;0.93;;;20.40;99.90;;;;;;4994334;28;20019;-51
2022/07/08 07:30:09;;;;;;;4.80;1.00;;;20.70;99.90;;;;;;4994918;28;20045;-52
2022/07/08 07:32:34;;;;;;;3.60;0.70;;;20.80;99.90;;;;;;4994246;28;20026;-47
2022/07/08 07:35:00;;;;;;;3.67;0.82;;;20.90;99.90;;;;;;4993315;28;20019;-51
2022/07/08 07:37:26;;;;;;;2.50;0.68;;;21.70;99.90;;;;;;4993188;28;20065;-50
2022/07/08 07:39:52;;;;;;;5.97;1.23;;;23.40;99.70;;;;;;4993480;28;20034;-51
2022/07/08 07:42:18;;;;;;;4.43;0.80;;;24.60;95.80;;;;;;4993070;28;20023;-52
2022/07/08 07:44:44;;;;;;;3.35;0.85;;;25.00;93.70;;;;;;4993983;28;20033;-52
2022/07/08 07:47:09;;;;;;;4.32;0.82;;;25.50;93.30;;;;;;4993153;28;20018;-49
2022/07/08 07:49:35;;;;;;;5.50;1.20;;;25.50;92.30;;;;;;4993264;28;20034;-49
2022/07/08 07:52:00;;;;;;;7.00;1.83;;;25.00;92.20;;;;;;4994186;28;20038;-54
2022/07/08 07:54:48;;;;;;;6.28;1.08;;;24.70;92.20;;;;;;4992446;28;20029;-51
2022/07/08 07:57:14;;;;;;;4.60;0.93;;;24.40;91.50;;;;;;4993040;28;20258;-49
2022/07/08 07:59:40;;;;;;;4.43;1.00;;;24.10;91.10;;;;;;4975113;28;20113;-47
2022/07/08 08:02:06;;;;;;;5.50;1.42;;;24.00;92.60;;;;;;4981081;28;20030;-49
2022/07/08 08:04:35;;;;;;;8.68;1.05;;;24.10;91.30;;;;;;4985441;28;20370;-47
2022/07/08 08:07:01;;;;;;;3.60;1.42;;;24.00;91.40;;;;;;4993107;28;20473;-48
2022/07/08 08:09:27;;;;;;;4.40;1.08;;;24.00;91.30;;;;;;4993903;28;20034;-50
2022/07/08 08:11:53;;;;;;;6.78;1.10;;;23.90;91.50;;;;;;4993784;28;20022;-51
2022/07/08 08:14:19;;;;;;;3.58;0.80;;;24.10;91.30;;;;;;4992931;28;20023;-49
2022/07/08 08:16:45;;;;;;;6.30;1.13;;;24.60;90.90;;;;;;4993796;28;20026;-51
2022/07/08 08:19:29;;;;;;;4.38;1.55;;;24.90;89.00;;;;;;4992489;28;20036;-49
2022/07/08 08:21:55;;;;;;;5.20;1.00;;;25.00;87.60;;;;;;4993708;28;20034;-52
2022/07/08 08:27:42;;;;;;;3.85;1.10;;;28.40;82.50;;;;;;4994080;28;20025;-54
2022/07/08 08:30:09;;;;;;;3.08;0.88;;;30.10;78.50;;;;;;4992044;28;20018;-50
2022/07/08 08:32:35;;;;;;;6.75;0.90;;;30.40;74.50;;;;;;4975677;28;20049;-52
2022/07/08 08:35:15;;;;;;;3.33;1.45;;;29.60;75.80;;;;;;4992201;28;20028;-50
2022/07/08 08:37:40;;;;;;;8.73;1.50;;;29.10;73.40;;;;;;4992913;28;20030;-55
2022/07/08 08:40:11;;;;;;;7.78;1.58;;;29.00;70.20;;;;;;4992544;28;20018;-53
2022/07/08 08:43:24;;;;;;;5.78;0.85;;;29.20;73.60;;;;;;4993547;28;20018;-56
2022/07/08 08:46:17;;;;;;;5.88;1.20;;;31.20;68.60;;;;;;4992431;28;20166;-54
2022/07/08 08:48:45;;;;;;;4.30;1.20;;;33.10;65.70;;;;;;4992731;28;20018;-53
2022/07/08 08:51:17;;;;;;;3.35;1.08;;;33.20;63.60;;;;;;4993858;28;20080;-49
2022/07/08 08:53:53;;;;;;;4.60;1.00;;;32.70;60.60;;;;;;4992578;28;20034;-55
2022/07/08 08:56:20;;;;;;;2.20;1.10;;;32.30;61.90;;;;;;4994882;28;20026;-57
2022/07/08 09:02:04;;;;;;;7.10;1.30;;;32.10;59.50;;;;;;4997135;28;20042;-54
2022/07/08 09:04:33;;;;;;;7.00;1.27;;;33.00;59.40;;;;;;4995991;28;20026;-55
2022/07/08 09:07:00;;;;;;;3.40;1.00;;;33.60;57.00;;;;;;4995963;28;20030;-56
2022/07/08 09:09:26;;;;;;;3.65;1.38;;;34.10;56.70;;;;;;4996009;28;20096;-53
2022/07/08 09:11:52;;;;;;;5.00;1.48;;;34.00;58.40;;;;;;4996981;28;20134;-57
2022/07/08 09:14:23;;;;;;;2.88;1.35;;;35.30;55.90;;;;;;4995751;28;20105;-57
2022/07/08 09:17:10;;;;;;;4.60;1.10;;;36.20;53.30;;;;;;4995679;28;20061;-53
2022/07/08 09:19:43;;;;;;;5.57;1.50;;;35.80;53.40;;;;;;4996016;28;20399;-51
2022/07/08 09:22:09;;;;;;;3.42;1.23;;;35.00;54.50;;;;;;4996785;28;20046;-50
2022/07/08 09:24:41;;;;;;;2.53;1.10;;;34.50;55.80;;;;;;4995587;28;20058;-50
2022/07/08 09:30:31;;;;;;;4.78;1.20;;;34.90;53.30;;;;;;4997014;28;20476;-53
2022/07/08 09:32:58;;;;;;;4.50;1.30;;;35.80;53.10;;;;;;4995410;28;20019;-56
2022/07/08 09:35:36;;;;;;;5.15;1.30;;;36.30;51.80;;;;;;4995759;28;20041;-54
2022/07/08 09:38:06;;;;;;;4.40;1.42;;;37.40;50.40;;;;;;4995780;28;20030;-48
2022/07/08 09:40:32;;;;;;;3.67;1.00;;;38.10;50.10;;;;;;4995425;28;20121;-56
2022/07/08 09:43:21;;;;;;;5.00;1.48;;;38.50;48.80;;;;;;4995457;28;20058;-55
2022/07/08 09:46:10;;;;;;;5.57;1.33;;;38.60;47.70;;;;;;4995633;28;20105;-50
2022/07/08 09:48:36;;;;;;;7.13;1.60;;;38.10;48.10;;;;;;4995149;28;20054;-51
2022/07/08 09:51:09;;;;;;;9.05;1.42;;;38.10;48.60;;;;;;4995308;28;20029;-48
2022/07/08 09:53:39;;;;;;;2.08;1.13;;;38.30;47.40;;;;;;4996372;28;20037;-53
2022/07/08 09:56:31;;;;;;;4.07;1.30;;;38.70;47.30;;;;;;4996097;28;20061;-50
2022/07/08 09:59:33;;;;;;;3.15;1.20;;;39.20;48.50;;;;;;4996385;28;20026;-51
2022/07/08 10:01:59;;;;;;;4.43;1.48;;;39.60;47.10;;;;;;4995167;28;20049;-51
2022/07/08 10:04:45;;;;;;;2.88;1.10;;;38.40;47.30;;;;;;4996041;28;20018;-55
2022/07/08 10:07:11;;;;;;;4.82;1.42;;;37.60;46.90;;;;;;4994761;28;20037;-55
2022/07/08 10:09:37;;;;;;;2.47;1.33;;;37.80;47.30;;;;;;4994664;28;20018;-53
2022/07/08 10:12:06;;;;;;;3.40;1.20;;;37.60;47.10;;;;;;4994629;28;20048;-54
2022/07/08 10:14:32;;;;;;;4.70;1.20;;;38.30;47.40;;;;;;4995802;28;20022;-52
2022/07/08 10:16:59;;;;;;;4.45;1.50;;;38.40;46.40;;;;;;4994587;28;20030;-53
2022/07/08 10:19:33;;;;;;;2.72;1.27;;;37.40;47.00;;;;;;4990470;28;20041;-54
2022/07/08 10:22:25;;;;;;;4.03;1.17;;;37.70;47.10;;;;;;4995842;28;20038;-52
2022/07/08 10:24:51;;;;;;;5.70;1.70;;;37.90;46.30;;;;;;4994506;28;20053;-54
2022/07/08 10:27:17;;;;;;;4.70;1.90;;;37.90;45.80;;;;;;4978529;28;20068;-53
2022/07/08 10:29:43;;;;;;;5.25;1.38;;;36.50;46.60;;;;;;4995758;28;20493;-51
2022/07/08 10:32:30;;;;;;;4.03;1.40;;;35.90;47.50;;;;;;4996171;28;20030;-54
2022/07/08 10:35:17;;;;;;;6.43;1.50;;;35.50;49.00;;;;;;4994350;28;20026;-54
2022/07/08 10:37:47;;;;;;;4.32;1.30;;;34.90;48.40;;;;;;4995578;28;20374;-49
2022/07/08 10:40:33;;;;;;;7.97;1.23;;;33.30;52.50;;;;;;4994189;28;20027;-53
2022/07/08 10:43:06;;;;;;;6.53;1.35;;;31.00;51.50;;;;;;4993929;28;20026;-53
2022/07/08 10:46:00;;;;;;;5.80;1.20;;;29.10;55.80;;;;;;4994484;28;20126;-49
2022/07/08 10:48:45;;;;;;;8.30;1.48;;;29.40;56.30;;;;;;4994760;28;20023;-52
2022/07/08 10:51:20;;;;;;;5.30;1.20;;;29.60;56.40;;;;;;4974542;28;20033;-49
2022/07/08 10:53:46;;;;;;;4.65;1.10;;;29.30;55.80;;;;;;4974530;28;20031;-52
2022/07/08 10:56:13;;;;;;;6.70;1.20;;;29.30;56.20;;;;;;4974762;28;20027;-48
2022/07/08 10:59:21;;;;;;;4.60;1.30;;;29.30;57.10;;;;;;4975765;28;20026;-54
2022/07/08 11:01:51;;;;;;;3.42;1.10;;;29.30;58.00;;;;;;4974439;28;20030;-48
2022/07/08 11:04:40;;;;;;;5.68;1.15;;;29.30;58.10;;;;;;4974956;28;20449;-51
2022/07/08 11:07:20;;;;;;;4.68;1.33;;;29.20;57.90;;;;;;4973828;28;20035;-55
2022/07/08 11:10:07;;;;;;;4.70;1.20;;;28.60;56.30;;;;;;4974827;28;20023;-52
2022/07/08 11:13:04;;;;;;;4.60;1.38;;;28.60;58.20;;;;;;4985813;28;20080;-54
2022/07/08 11:15:36;;;;;;;4.05;1.10;;;28.40;59.00;;;;;;5013144;28;20029;-55
2022/07/08 11:18:12;;;;;;;8.60;1.55;;;28.10;58.60;;;;;;5012312;28;20041;-48
2022/07/08 11:20:54;;;;;;;3.53;1.20;;;28.10;59.70;;;;;;5012830;28;20116;-53
2022/07/08 11:23:25;;;;;;;5.60;1.50;;;27.80;58.40;;;;;;5013129;28;20029;-53
2022/07/08 11:26:00;;;;;;;4.03;0.88;;;27.10;59.10;;;;;;5013489;28;20029;-53
2022/07/08 11:28:44;;;;;;;3.97;1.75;;;26.60;62.30;;;;;;5012830;28;20080;-51
2022/07/08 11:35:14;;;;;;;3.53;1.30;;;26.30;63.30;;;;;;4975302;28;20107;-50
2022/07/08 11:37:48;;;;;;;5.65;1.42;;;26.50;61.10;;;;;;4974835;28;20026;-50
2022/07/08 11:40:20;;;;;;;4.57;1.23;;;25.90;61.10;;;;;;4973648;28;20031;-49
2022/07/08 11:43:18;;;;;;;9.43;1.60;;;26.00;62.60;;;;;;4973983;28;20019;-52
2022/07/08 11:45:58;;;;;;;4.40;1.30;;;26.10;63.80;;;;;;4974127;28;20137;-54
2022/07/08 11:48:44;;;;;;;4.15;1.15;;;25.60;62.10;;;;;;4973735;28;20057;-52
2022/07/08 11:51:22;;;;;;;4.03;0.90;;;25.60;64.60;;;;;;4974517;28;20050;-49
2022/07/08 11:53:48;;;;;;;4.90;1.30;;;25.60;63.70;;;;;;4974685;28;20034;-53
2022/07/08 11:56:25;;;;;;;3.58;1.20;;;25.40;62.60;;;;;;4974813;28;20026;-50
2022/07/08 11:59:01;;;;;;;6.60;1.10;;;25.00;65.10;;;;;;4973283;28;20022;-51
2022/07/08 12:01:35;;;;;;;2.92;0.98;;;25.20;64.90;;;;;;4973239;28;20027;-53
2022/07/08 12:04:06;;;;;;;4.18;0.98;;;25.30;64.90;;;;;;4989963;28;20053;-53
2022/07/08 12:06:44;;;;;;;4.32;1.27;;;25.50;65.00;;;;;;4993521;28;20030;-50
2022/07/08 12:09:41;;;;;;;7.10;1.67;;;25.60;65.40;;;;;;4991950;28;20084;-55
2022/07/08 12:12:14;;;;;;;4.15;1.33;;;25.40;64.20;;;;;;4992251;28;20030;-55
2022/07/08 12:15:21;;;;;;;5.53;1.08;;;25.20;64.70;;;;;;4993083;28;20096;-52
2022/07/08 12:18:11;;;;;;;4.07;0.90;;;25.30;64.90;;;;;;4993090;28;20026;-49
2022/07/08 12:20:45;;;;;;;7.50;1.10;;;25.30;65.70;;;;;;4993667;28;20022;-53
2022/07/08 12:23:22;;;;;;;2.03;1.00;;;25.40;65.80;;;;;;4992495;28;20086;-54
2022/07/08 12:26:02;;;;;;;5.15;1.60;;;25.50;65.80;;;;;;4993827;28;20101;-50
2022/07/08 12:28:38;;;;;;;1.85;0.90;;;25.60;65.90;;;;;;4992541;28;20023;-53
2022/07/08 12:31:11;;;;;;;5.35;1.05;;;25.60;66.50;;;;;;4996301;28;20551;-53
2022/07/08 12:33:43;;;;;;;5.28;1.00;;;25.70;65.80;;;;;;4996632;28;20026;-54
2022/07/08 12:36:33;;;;;;;3.28;1.10;;;25.70;65.40;;;;;;4996465;28;20112;-52
2022/07/08 12:39:34;;;;;;;;;;;;;;;;;;;;;
2022/07/08 12:42:11;;;;;;;4.43;1.20;;;25.60;65.30;;;;;;4997369;28;20052;-54
2022/07/08 12:44:58;;;;;;;4.43;1.27;;;25.00;64.80;;;;;;4997576;28;20157;-54
2022/07/08 12:47:34;;;;;;;4.70;1.48;;;24.60;67.70;;;;;;4997676;28;20105;-54
2022/07/08 12:50:25;;;;;;;5.25;1.58;;;24.70;67.70;;;;;;4996569;28;20025;-54
2022/07/08 12:53:02;;;;;;;5.03;1.48;;;24.90;67.70;;;;;;4997552;28;20022;-54
2022/07/08 12:55:35;;;;;;;3.25;1.25;;;24.90;68.30;;;;;;4997712;28;20105;-52
2022/07/08 12:58:12;;;;;;;2.00;0.93;;;25.00;67.90;;;;;;4996238;28;20054;-51
2022/07/08 13:00:48;;;;;;;9.85;1.23;;;25.10;67.50;;;;;;4995331;28;20018;-56
2022/07/08 13:03:19;;;;;;;4.15;1.23;;;25.10;68.10;;;;;;4977891;28;20106;-49
2022/07/08 13:06:20;;;;;;;6.35;1.02;;;25.10;67.70;;;;;;4976603;28;20023;-48
2022/07/08 13:09:17;;;;;;;7.32;1.67;;;25.20;68.30;;;;;;4976566;28;20034;-50
2022/07/08 13:11:51;;;;;;;2.45;1.00;;;25.30;68.10;;;;;;4976325;28;20041;-55
2022/07/08 13:14:28;;;;;;;2.53;1.20;;;25.30;67.80;;;;;;4977636;28;20034;-55
2022/07/08 13:20:28;;;;;;;5.00;1.17;;;25.30;67.70;;;;;;4985122;28;20025;-55
2022/07/08 13:23:01;;;;;;;2.97;1.20;;;25.40;68.00;;;;;;4976546;28;20018;-54
2022/07/08 13:25:33;;;;;;;2.15;1.13;;;25.40;68.00;;;;;;4976068;28;20023;-52
2022/07/08 13:28:16;;;;;;;5.28;1.15;;;25.60;67.40;;;;;;4976170;28;20027;-55
2022/07/08 13:30:52;;;;;;;3.65;1.60;;;25.70;67.80;;;;;;4977578;28;20031;-52